KOSH/OSH METAR and TAF weather

Enter ICAO airport designator
Station Type Date Time Source
KOSH METAR 2024/07/23 17:39 UTC NOAA

KOSH 231739Z 29006KT 10SM BKN022 24/18 A2997 RMK AO2 T02390183


Station Type Date Time Source
KOSH Decoded METAR 2024/07/23 17:39 UTC NOAA

WITTMAN REGIONAL AIRPORT, WI, United States (KOSH) 43-58N 88-33W 248M
Jul 23, 2024 - 01:39 PM EDT / 2024.07.23 1739 UTC
Wind: from the WNW (290 degrees) at 7 MPH (6 KT):0
Visibility: 10 mile(s):0
Sky conditions: mostly cloudy
Temperature: 75.0 F (23.9 C)
Dew Point: 64.9 F (18.3 C)
Relative Humidity: 70%
Pressure (altimeter): 29.97 in. Hg (1014 hPa)
ob: KOSH 231739Z 29006KT 10SM BKN022 24/18 A2997 RMK AO2 T02390183
cycle: 17

Station Type Date Time Source
KOSH TAF 2024/07/23 18:22 UTC NOAA